Healdton, OK (73438)

3:16 PM CDT on July 26, 2016 (GMT -0500)
Carter County Dist 2 | | Change Station
Active Advisory: Areal Flood Advisory

Elev 933 ft 34.25 °N, 97.50 °W | Updated 7 minutes ago

Overcast
Overcast
89.1 °F
Feels Like 99 °F
N
0.0
Wind Variable Wind from ESE
Gusts 7.0 mph

Today
High -- | Low -- °F
--% Chance of Precip.
Yesterday
High -- | Low -- °F
Precip. -- in
Pressure 29.94 in
Visibility 10.0 miles
Clouds Scattered Clouds 4100 ft
Scattered Clouds 12000 ft
Heat Index 99 °F
Dew Point 75 °F
Humidity 63%
Rainfall 0.00 in
Snow Depth Not available.
6:37 AM 8:35 PM
Waning Gibbous, 51% visible
METAR K1F0 261955Z AUTO 06005KT 10SM -VCTSRA SCT041 SCT120 28/22 A2994 RMK AO2 LTG DSNT NE THRU SW
Pressure 29.94 in
Visibility 10.0 miles
Clouds Scattered Clouds 4100 ft
Scattered Clouds 12000 ft
Heat Index 99 °F
Dew Point 75 °F
Humidity 63%
Rainfall 0.00 in
Snow Depth Not available.
6:37 AM 8:35 PM
Waning Gibbous, 51% visible
METAR K1F0 261955Z AUTO 06005KT 10SM -VCTSRA SCT041 SCT120 28/22 A2994 RMK AO2 LTG DSNT NE THRU SW

10-Day Weather Forecast

Almanac

Astronomy

Jul. 26, 2016 Rise Set
Actual Time
Civil Twilight
Nautical Twilight
Astronomical Twilight
Moon
Length of Visible Light
Length of Day
Tomorrow will be .
, % of the Moon is Illuminated

Today's Extremes

State Highs State Lows

Community

WunderPhotos

Upload Photos

1,927,678 photos uploaded!

WunderBlog® & News

Nearby

Air Quality

  Air Quality AQ Index Pollutant
Not available.

Snow Depth

Station Depth Elevation

Earthquake Activity

City Distance Mag. Time & Date
Minimum magnitude displayed is 2.5.

Coastal Water Temperatures

Place Temperature

Stations

Nearby Weather Stations

Station Location Temp. Windchill Dew Point Humidity Wind Precip. Elev Updated Type
                   

Watches & Warnings

Areal Flood Advisory
Issued: 12:46 PM CDT Jul. 26, 2016 – National Weather Service

The National Weather Service in Norman has issued a

* Flood Advisory for...
central Carter County in southern Oklahoma...
southwestern Murray County in southern Oklahoma...

* until 345 PM CDT

* at 1245 PM CDT... Doppler radar indicated heavy rain due to
thunderstorms. This will cause minor flooding in the advisory area.
Up to one and a half inches of rain has already fallen.

* Some locations that will experience flooding include...
Lone Grove... Springer and Turner Falls.

Additional rainfall of up to an inch is expected over the area. This
additional rain will make minor flooding.

Precautionary/preparedness actions...

In hilly terrain there are hundreds of low water crossings which are
potentially dangerous in heavy rain. Do not attempt to cross flooded
roads. Find an alternate Route.


Lat... Lon 3444 9711 3426 9706 3422 9719 3424 9734
      3444 9731


Mad